Time;durP1;ratioP1;P1;durP2;ratioP2;P2;SDS_P1;SDS_P2;PMS_P1;PMS_P2;Temp;Humidity;BMP_temperature;BMP_pressure;BME280_temperature;BME280_humidity;BME280_pressure;Samples;Min_cycle;Max_cycle;Signal;HPM_P1;HPM_P2
2022/12/19 00:00:45;;;;;;;13.13;6.50;;;-0.40;99.90;;;;;;4994992;28;20583;-63
2022/12/19 00:03:12;;;;;;;12.80;6.37;;;-0.40;99.90;;;;;;5023817;28;20656;-62
2022/12/19 00:05:39;;;;;;;10.20;6.33;;;-0.40;99.90;;;;;;5011747;28;20212;-63
2022/12/19 00:08:07;;;;;;;15.77;7.97;;;-0.40;99.90;;;;;;5019415;28;20202;-62
2022/12/19 00:10:34;;;;;;;15.67;7.30;;;-0.40;99.90;;;;;;5013448;28;20235;-62
2022/12/19 00:13:00;;;;;;;13.83;6.53;;;-0.40;99.90;;;;;;5021968;28;20810;-62
2022/12/19 00:15:29;;;;;;;14.67;6.97;;;-0.30;99.90;;;;;;4997959;28;20211;-63
2022/12/19 00:17:55;;;;;;;13.33;6.77;;;-0.40;99.90;;;;;;5023791;28;20206;-62
2022/12/19 00:20:22;;;;;;;12.73;6.57;;;-0.30;99.90;;;;;;5019809;28;20202;-62
2022/12/19 00:22:49;;;;;;;13.00;7.00;;;-0.30;99.90;;;;;;5024192;28;20679;-62
2022/12/19 00:25:16;;;;;;;19.00;9.07;;;-0.30;99.90;;;;;;5010625;28;20208;-62
2022/12/19 00:27:43;;;;;;;17.80;8.03;;;-0.30;99.90;;;;;;5007355;28;20431;-63
2022/12/19 00:30:11;;;;;;;17.47;7.80;;;-0.30;99.90;;;;;;5022355;28;20566;-62
2022/12/19 00:32:39;;;;;;;14.70;7.10;;;-0.30;99.90;;;;;;4990491;28;20705;-63
2022/12/19 00:35:06;;;;;;;17.23;7.87;;;-0.30;99.90;;;;;;5013240;28;20233;-63
2022/12/19 00:37:33;;;;;;;13.37;7.77;;;-0.30;99.90;;;;;;5028043;28;20201;-62
2022/12/19 00:40:00;;;;;;;12.33;6.73;;;-0.20;99.90;;;;;;5021084;28;20204;-62
2022/12/19 00:42:28;;;;;;;16.27;7.97;;;-0.30;99.90;;;;;;5002851;28;20227;-62
2022/12/19 00:44:55;;;;;;;14.77;8.07;;;-0.20;99.90;;;;;;5027731;28;20960;-62
2022/12/19 00:47:21;;;;;;;15.17;8.20;;;-0.20;99.90;;;;;;4992585;28;20791;-63
2022/12/19 00:49:53;;;;;;;14.93;7.10;;;-0.20;99.90;;;;;;5023010;28;20201;-62
2022/12/19 00:52:19;;;;;;;12.40;7.00;;;-0.20;99.90;;;;;;5012195;28;20694;-62
2022/12/19 00:54:46;;;;;;;14.77;7.90;;;-0.10;99.90;;;;;;5027004;28;20716;-62
2022/12/19 00:57:13;;;;;;;16.43;8.40;;;-0.10;99.90;;;;;;4993872;28;20965;-62
2022/12/19 00:59:40;;;;;;;21.37;8.70;;;-0.10;99.90;;;;;;5026551;28;20581;-62
2022/12/19 01:02:07;;;;;;;15.47;7.97;;;-0.10;99.90;;;;;;4993633;28;20230;-63
2022/12/19 01:04:34;;;;;;;14.07;8.10;;;-0.10;99.90;;;;;;5019730;28;20215;-62
2022/12/19 01:07:04;;;;;;;13.63;8.07;;;-0.10;99.90;;;;;;5013403;28;20202;-62
2022/12/19 01:09:32;;;;;;;16.70;8.80;;;0.00;99.90;;;;;;5018810;28;20578;-63
2022/12/19 01:14:43;;;;;;;15.37;8.53;;;0.10;99.90;;;;;;5015403;28;20367;-62
2022/12/19 01:17:10;;;;;;;17.27;8.10;;;0.00;99.90;;;;;;5017280;28;21411;-63
2022/12/19 01:19:37;;;;;;;16.87;8.17;;;0.00;99.90;;;;;;4994527;28;20913;-62
2022/12/19 01:22:05;;;;;;;14.63;8.40;;;0.10;99.90;;;;;;5018358;28;20229;-62
2022/12/19 01:24:32;;;;;;;17.40;8.47;;;0.10;99.90;;;;;;5027054;28;20198;-62
2022/12/19 01:26:58;;;;;;;18.33;9.40;;;0.10;99.90;;;;;;5013333;28;20214;-62
2022/12/19 01:29:25;;;;;;;15.70;8.77;;;0.10;99.90;;;;;;5011730;28;20663;-63
2022/12/19 01:31:52;;;;;;;19.80;9.63;;;0.10;99.90;;;;;;5023452;28;20196;-63
2022/12/19 01:34:19;;;;;;;17.83;10.33;;;0.10;99.90;;;;;;4994020;28;20704;-63
2022/12/19 01:36:45;;;;;;;22.97;11.03;;;0.10;99.90;;;;;;5010248;28;20234;-63
2022/12/19 01:39:13;;;;;;;16.40;9.57;;;0.10;99.90;;;;;;5000727;28;20199;-63
2022/12/19 01:41:40;;;;;;;16.67;9.10;;;0.10;99.90;;;;;;5007613;28;20235;-62
2022/12/19 01:44:08;;;;;;;18.67;9.97;;;0.10;99.90;;;;;;4986378;28;20207;-63
2022/12/19 01:46:38;;;;;;;21.40;11.07;;;0.10;99.90;;;;;;5004783;28;21111;-62
2022/12/19 01:49:09;;;;;;;26.47;11.33;;;0.10;99.90;;;;;;4983596;28;20208;-63
2022/12/19 01:51:41;;;;;;;24.83;10.83;;;0.10;99.90;;;;;;4992365;28;20219;-63
2022/12/19 01:54:12;;;;;;;23.53;10.90;;;0.10;99.90;;;;;;4996844;28;20205;-63
2022/12/19 01:56:45;;;;;;;21.63;10.80;;;0.10;99.90;;;;;;4993345;28;20203;-63
2022/12/19 01:59:19;;;;;;;22.47;9.97;;;0.10;99.90;;;;;;4991975;28;20201;-62
2022/12/19 02:01:46;;;;;;;23.67;11.83;;;0.10;99.90;;;;;;4992791;28;20232;-63
2022/12/19 02:04:14;;;;;;;19.13;9.50;;;0.20;99.90;;;;;;4995030;28;20196;-63
2022/12/19 02:06:42;;;;;;;23.27;10.60;;;0.20;99.90;;;;;;4981648;28;20212;-62
2022/12/19 02:09:10;;;;;;;20.00;11.13;;;0.20;99.90;;;;;;5001030;28;20269;-63
2022/12/19 02:11:38;;;;;;;26.13;10.57;;;0.20;99.90;;;;;;4987478;28;20198;-63
2022/12/19 02:14:06;;;;;;;20.70;10.90;;;0.20;99.90;;;;;;5004188;28;20202;-62
2022/12/19 02:16:44;;;;;;;24.23;11.17;;;0.30;99.90;;;;;;4979265;28;20218;-62
2022/12/19 02:19:38;;;;;;;20.57;10.53;;;0.30;99.90;;;;;;5004077;28;20206;-63
2022/12/19 02:22:14;;;;;;;19.90;10.60;;;0.30;99.90;;;;;;4973589;28;20238;-62
2022/12/19 02:25:01;;;;;;;23.13;10.73;;;0.30;99.90;;;;;;4991068;28;20206;-63
2022/12/19 02:27:58;;;;;;;18.90;10.27;;;0.30;99.90;;;;;;4992612;28;20230;-63
2022/12/19 02:30:53;;;;;;;19.23;9.57;;;0.40;99.90;;;;;;4993817;28;20207;-63
2022/12/19 02:33:28;;;;;;;19.33;9.50;;;0.40;99.90;;;;;;4989605;28;20232;-62
2022/12/19 02:36:03;;;;;;;20.77;10.20;;;0.40;99.90;;;;;;5008085;28;20227;-62
2022/12/19 02:38:37;;;;;;;17.83;9.13;;;0.40;99.90;;;;;;4992047;28;20215;-62
2022/12/19 02:41:07;;;;;;;18.67;9.57;;;0.40;99.90;;;;;;5011898;28;20253;-63
2022/12/19 02:43:39;;;;;;;18.57;9.33;;;0.40;99.90;;;;;;5004756;28;20214;-63
2022/12/19 02:46:09;;;;;;;21.53;10.13;;;0.40;99.90;;;;;;5009214;28;20585;-63
2022/12/19 02:48:36;;;;;;;19.07;9.20;;;0.40;99.90;;;;;;5008146;28;20204;-62
2022/12/19 02:51:03;;;;;;;23.10;9.37;;;0.50;99.90;;;;;;5021068;28;20191;-63
2022/12/19 02:53:30;;;;;;;19.77;10.17;;;0.50;99.90;;;;;;4998057;28;20682;-62
2022/12/19 02:56:17;;;;;;;18.07;9.20;;;0.50;99.90;;;;;;5018744;28;20231;-63
2022/12/19 02:58:53;;;;;;;20.13;9.53;;;0.50;99.90;;;;;;5017510;28;20205;-62
2022/12/19 03:01:36;;;;;;;20.90;10.37;;;0.50;99.90;;;;;;5014879;28;20224;-63
2022/12/19 03:04:15;;;;;;;15.80;8.67;;;0.50;99.90;;;;;;5016728;28;20239;-63
2022/12/19 03:06:49;;;;;;;19.60;9.93;;;0.60;99.90;;;;;;5013345;28;20202;-63
2022/12/19 03:09:24;;;;;;;19.57;9.53;;;0.50;99.90;;;;;;5030238;28;20608;-63
2022/12/19 03:12:01;;;;;;;17.40;9.20;;;0.60;99.90;;;;;;5014599;28;20222;-63
2022/12/19 03:14:31;;;;;;;21.17;9.53;;;0.60;99.90;;;;;;5034604;28;20232;-63
2022/12/19 03:17:04;;;;;;;18.57;9.47;;;0.60;99.90;;;;;;5012209;28;20198;-63
2022/12/19 03:19:32;;;;;;;18.30;9.53;;;0.60;99.90;;;;;;5021051;28;20223;-63
2022/12/19 03:21:59;;;;;;;18.13;10.17;;;0.70;99.90;;;;;;4995094;28;20236;-63
2022/12/19 03:24:27;;;;;;;16.80;8.97;;;0.60;99.90;;;;;;5026635;28;20203;-62
2022/12/19 03:26:59;;;;;;;19.90;9.87;;;0.70;99.90;;;;;;5020985;28;20198;-63
2022/12/19 03:29:31;;;;;;;19.30;9.47;;;0.70;99.90;;;;;;5028381;28;20212;-63
2022/12/19 03:32:04;;;;;;;16.53;8.80;;;0.70;99.90;;;;;;5017414;28;20205;-64
2022/12/19 03:34:36;;;;;;;20.07;10.30;;;0.70;99.90;;;;;;5025385;28;20862;-63
2022/12/19 03:37:07;;;;;;;21.33;9.77;;;0.70;99.90;;;;;;5015443;28;20223;-63
2022/12/19 03:39:34;;;;;;;18.63;10.27;;;0.70;99.90;;;;;;5000294;28;20215;-62
2022/12/19 03:44:51;;;;;;;21.20;10.20;;;0.80;99.90;;;;;;5015496;28;20212;-63
2022/12/19 03:47:23;;;;;;;21.93;9.57;;;0.80;99.90;;;;;;5027883;28;20200;-62
2022/12/19 03:49:51;;;;;;;21.30;9.73;;;0.80;99.90;;;;;;5015289;28;20217;-63
2022/12/19 03:52:28;;;;;;;19.33;10.47;;;0.80;99.90;;;;;;5016829;28;20213;-63
2022/12/19 03:55:01;;;;;;;19.97;9.73;;;0.90;99.90;;;;;;4993859;28;20701;-63
2022/12/19 03:57:34;;;;;;;18.13;10.10;;;0.90;99.90;;;;;;5024965;28;20300;-62
2022/12/19 04:00:05;;;;;;;22.53;9.83;;;0.90;99.90;;;;;;5000366;28;20905;-63
2022/12/19 04:02:37;;;;;;;20.33;10.17;;;0.90;99.90;;;;;;5026308;28;20237;-63
2022/12/19 04:05:11;;;;;;;18.57;10.10;;;0.90;99.90;;;;;;5017321;28;20581;-63
2022/12/19 04:07:40;;;;;;;22.07;9.67;;;0.90;99.90;;;;;;5009973;28;20210;-63
2022/12/19 04:10:11;;;;;;;19.37;9.13;;;1.00;99.90;;;;;;4997404;28;20203;-63
2022/12/19 04:12:41;;;;;;;22.03;9.73;;;1.00;99.90;;;;;;5024181;28;20273;-63
2022/12/19 04:15:09;;;;;;;17.50;9.73;;;1.00;99.90;;;;;;5000854;28;20208;-63
2022/12/19 04:17:42;;;;;;;20.50;9.90;;;1.10;99.90;;;;;;5026624;28;20207;-63
2022/12/19 04:20:11;;;;;;;21.67;10.93;;;1.00;99.90;;;;;;5015164;28;20209;-63
2022/12/19 04:22:42;;;;;;;16.73;9.07;;;1.10;99.90;;;;;;5024630;28;20787;-63
2022/12/19 04:25:13;;;;;;;20.13;10.37;;;2.10;99.90;;;;;;4994658;28;20595;-63
2022/12/19 04:27:45;;;;;;;18.90;9.10;;;1.10;99.90;;;;;;5022950;28;20201;-63
2022/12/19 04:30:14;;;;;;;18.30;10.03;;;1.10;99.90;;;;;;5007386;28;20206;-63
2022/12/19 04:32:46;;;;;;;20.07;9.63;;;1.10;99.90;;;;;;5028319;28;20201;-63
2022/12/19 04:35:13;;;;;;;18.07;9.63;;;1.10;99.90;;;;;;5014670;28;20622;-63
2022/12/19 04:37:41;;;;;;;18.60;9.57;;;1.10;99.90;;;;;;5025284;28;20870;-63
2022/12/19 04:40:09;;;;;;;19.80;9.87;;;1.20;99.90;;;;;;4984693;28;20561;-64
2022/12/19 04:42:36;;;;;;;19.97;10.13;;;1.20;99.90;;;;;;5027900;28;20754;-63
2022/12/19 04:45:03;;;;;;;21.00;9.97;;;1.20;99.90;;;;;;5012687;28;20204;-63
2022/12/19 04:47:30;;;;;;;17.77;10.23;;;1.20;99.90;;;;;;5018012;28;20744;-63
2022/12/19 04:49:58;;;;;;;20.37;10.40;;;1.30;99.90;;;;;;5009078;28;20957;-62
2022/12/19 04:52:25;;;;;;;23.30;10.63;;;1.30;99.90;;;;;;5023085;28;20227;-64
2022/12/19 04:54:51;;;;;;;20.90;9.63;;;1.30;99.90;;;;;;5017274;28;20201;-62
2022/12/19 04:57:18;;;;;;;16.87;9.60;;;1.30;99.90;;;;;;4988649;28;21106;-63
2022/12/19 04:59:45;;;;;;;16.60;9.67;;;1.40;99.90;;;;;;5017725;28;20226;-63
2022/12/19 05:02:12;;;;;;;23.37;10.53;;;1.40;99.90;;;;;;5017601;28;20251;-63
2022/12/19 05:04:38;;;;;;;25.60;9.90;;;1.40;99.90;;;;;;5019212;28;20205;-63
2022/12/19 05:07:07;;;;;;;22.33;10.23;;;1.40;99.90;;;;;;5023631;28;20625;-63
2022/12/19 05:09:41;;;;;;;20.20;9.57;;;1.40;99.90;;;;;;5016297;28;20230;-63
2022/12/19 05:12:09;;;;;;;24.10;10.40;;;1.40;99.90;;;;;;4992413;28;20275;-63
2022/12/19 05:14:35;;;;;;;18.50;9.43;;;1.40;99.90;;;;;;5013600;28;20198;-63
2022/12/19 05:17:02;;;;;;;22.37;10.63;;;1.40;99.90;;;;;;5007678;28;20202;-63
2022/12/19 05:19:29;;;;;;;25.67;10.23;;;1.40;99.90;;;;;;5013359;28;20194;-64
2022/12/19 05:21:56;;;;;;;24.93;10.57;;;1.50;99.90;;;;;;5021400;28;20225;-63
2022/12/19 05:24:24;;;;;;;19.40;10.27;;;1.50;99.90;;;;;;5016252;28;20210;-64
2022/12/19 05:26:51;;;;;;;22.80;11.10;;;1.50;99.90;;;;;;4994937;28;20214;-64
2022/12/19 05:29:17;;;;;;;20.27;10.60;;;1.50;99.90;;;;;;5019084;28;20217;-63
2022/12/19 05:31:44;;;;;;;24.67;10.90;;;1.50;99.90;;;;;;5000568;28;20203;-64
2022/12/19 05:34:11;;;;;;;20.93;9.63;;;1.60;99.90;;;;;;5016892;28;20202;-63
2022/12/19 05:36:38;;;;;;;18.50;10.30;;;1.60;99.90;;;;;;5020436;28;20238;-63
2022/12/19 05:39:05;;;;;;;20.90;10.33;;;1.60;99.90;;;;;;5001340;28;20230;-64
2022/12/19 05:41:33;;;;;;;27.60;11.07;;;1.70;99.90;;;;;;4998761;28;20585;-64
2022/12/19 05:44:00;;;;;;;18.37;10.03;;;1.70;99.90;;;;;;5010761;28;20681;-63
2022/12/19 05:46:27;;;;;;;19.97;10.37;;;1.70;99.90;;;;;;5013415;28;20201;-63
2022/12/19 05:48:54;;;;;;;18.20;9.43;;;1.70;99.90;;;;;;5013876;28;20201;-63
2022/12/19 05:51:20;;;;;;;20.90;10.57;;;1.70;99.90;;;;;;5016602;28;20208;-63
2022/12/19 05:53:48;;;;;;;21.53;10.40;;;1.90;99.90;;;;;;5003631;28;20737;-64
2022/12/19 05:56:16;;;;;;;19.90;10.30;;;1.70;99.90;;;;;;5016376;28;20205;-64
2022/12/19 05:58:45;;;;;;;25.33;11.17;;;1.70;99.90;;;;;;4999832;28;20213;-63
2022/12/19 06:01:13;;;;;;;22.13;10.50;;;1.70;99.90;;;;;;5023029;28;20202;-64
2022/12/19 06:03:40;;;;;;;22.03;10.43;;;1.70;99.90;;;;;;5012002;28;20234;-63
2022/12/19 06:06:10;;;;;;;17.77;9.87;;;1.70;99.90;;;;;;4996573;28;20233;-64
2022/12/19 06:08:37;;;;;;;24.13;11.33;;;1.70;99.90;;;;;;5002053;28;20218;-63
2022/12/19 06:11:06;;;;;;;17.50;9.47;;;1.80;99.90;;;;;;5013836;28;20320;-63
2022/12/19 06:13:34;;;;;;;23.97;10.57;;;1.80;99.90;;;;;;4980675;28;20231;-64
2022/12/19 06:16:04;;;;;;;19.23;10.13;;;1.80;99.90;;;;;;5005490;28;20219;-63
2022/12/19 06:18:31;;;;;;;18.53;10.50;;;1.80;99.90;;;;;;5004559;28;20242;-63
2022/12/19 06:20:59;;;;;;;20.07;11.27;;;1.90;99.90;;;;;;4998899;28;21246;-63
2022/12/19 06:23:26;;;;;;;22.93;10.00;;;1.90;99.90;;;;;;5000022;28;20235;-64
2022/12/19 06:25:55;;;;;;;17.77;10.10;;;1.90;99.90;;;;;;5012427;28;20261;-63
2022/12/19 06:28:22;;;;;;;23.93;11.00;;;1.90;99.90;;;;;;4989215;28;20225;-65
2022/12/19 06:30:49;;;;;;;20.97;10.67;;;1.90;99.90;;;;;;5024675;28;20204;-64
2022/12/19 06:33:17;;;;;;;21.03;10.77;;;1.90;99.90;;;;;;5010739;28;20230;-63
2022/12/19 06:35:44;;;;;;;23.27;11.57;;;1.90;99.90;;;;;;5014104;28;21333;-64
2022/12/19 06:38:10;;;;;;;17.20;10.37;;;2.00;99.90;;;;;;5016017;28;20209;-63
2022/12/19 06:43:27;;;;;;;23.17;10.93;;;2.00;99.90;;;;;;5024142;28;20260;-64
2022/12/19 06:45:56;;;;;;;20.83;11.10;;;2.00;99.90;;;;;;4994172;28;20212;-64
2022/12/19 06:48:26;;;;;;;23.97;11.27;;;2.10;99.90;;;;;;5021337;28;20320;-64
2022/12/19 06:50:53;;;;;;;19.97;10.77;;;2.10;99.90;;;;;;5009746;28;20220;-65
2022/12/19 06:53:20;;;;;;;21.73;11.53;;;2.10;99.90;;;;;;5023703;28;20596;-64
2022/12/19 06:55:47;;;;;;;18.37;10.53;;;2.00;99.90;;;;;;5015639;28;20567;-64
2022/12/19 06:58:14;;;;;;;24.17;11.33;;;2.10;99.90;;;;;;5014917;28;20200;-65
2022/12/19 07:00:41;;;;;;;18.37;9.40;;;2.20;99.90;;;;;;4995343;28;20223;-63
2022/12/19 07:03:11;;;;;;;23.73;10.03;;;2.10;99.90;;;;;;5002658;28;20905;-64
2022/12/19 07:05:40;;;;;;;26.17;10.67;;;2.10;99.90;;;;;;5024246;28;20200;-64
2022/12/19 07:08:08;;;;;;;22.90;11.00;;;2.20;99.90;;;;;;4998979;28;20207;-64
2022/12/19 07:10:35;;;;;;;20.93;11.20;;;2.20;99.90;;;;;;5018112;28;20403;-64
2022/12/19 07:13:03;;;;;;;21.77;10.93;;;2.30;99.90;;;;;;5012688;28;20595;-64
2022/12/19 07:15:31;;;;;;;19.63;10.53;;;2.30;99.90;;;;;;5000418;28;20264;-64
2022/12/19 07:17:59;;;;;;;21.70;11.63;;;2.30;99.90;;;;;;5006931;28;21097;-64
2022/12/19 07:20:26;;;;;;;23.13;11.87;;;2.30;99.90;;;;;;5013422;28;20204;-65
2022/12/19 07:22:55;;;;;;;19.43;10.73;;;2.30;99.90;;;;;;5031957;23;20357;-65
2022/12/19 07:25:21;;;;;;;22.87;11.37;;;2.30;99.90;;;;;;4984778;28;20207;-65
2022/12/19 07:27:48;;;;;;;21.07;11.53;;;2.30;99.90;;;;;;4970944;28;20898;-64
2022/12/19 07:30:15;;;;;;;19.63;10.80;;;2.40;99.90;;;;;;4987077;28;20705;-63
2022/12/19 07:32:42;;;;;;;22.87;12.03;;;2.30;99.90;;;;;;4945137;28;20577;-64
2022/12/19 07:35:09;;;;;;;18.67;10.07;;;2.40;99.90;;;;;;4981662;28;20212;-65
2022/12/19 07:37:36;;;;;;;19.97;11.33;;;2.40;99.90;;;;;;4976751;28;20202;-66
2022/12/19 07:40:05;;;;;;;23.87;11.53;;;2.40;99.90;;;;;;4989115;28;20206;-65
2022/12/19 07:42:32;;;;;;;22.13;12.03;;;2.40;99.90;;;;;;4986471;28;20223;-65
2022/12/19 07:45:00;;;;;;;29.60;12.17;;;2.40;99.90;;;;;;4968291;28;20765;-65
2022/12/19 07:47:27;;;;;;;26.17;11.20;;;2.40;99.90;;;;;;4947642;28;20236;-65
2022/12/19 07:49:54;;;;;;;24.63;11.63;;;2.40;99.90;;;;;;4951846;28;20214;-66
2022/12/19 07:52:21;;;;;;;22.43;11.50;;;2.40;99.90;;;;;;4956706;28;20215;-65
2022/12/19 07:54:48;;;;;;;18.40;10.43;;;;;;;;;;4960808;28;20232;-66
2022/12/19 07:57:16;;;;;;;19.77;10.00;;;2.50;99.90;;;;;;4970799;28;20237;-65
2022/12/19 07:59:43;;;;;;;22.53;12.20;;;2.50;99.90;;;;;;4961997;28;21412;-65
2022/12/19 08:02:10;;;;;;;22.77;12.03;;;2.60;99.90;;;;;;4958394;28;20229;-66
2022/12/19 08:04:37;;;;;;;27.83;12.40;;;2.60;99.90;;;;;;4949923;28;20235;-65
2022/12/19 08:07:04;;;;;;;19.37;10.80;;;2.50;99.90;;;;;;4980578;28;20216;-65
2022/12/19 08:09:31;;;;;;;21.30;11.80;;;2.50;99.90;;;;;;4975759;28;21172;-66
2022/12/19 08:11:58;;;;;;;24.47;11.43;;;2.60;99.90;;;;;;4961949;28;20213;-65
2022/12/19 08:14:27;;;;;;;21.37;10.27;;;2.70;99.90;;;;;;4987250;28;20206;-66
2022/12/19 08:16:53;;;;;;;24.30;12.23;;;2.70;99.90;;;;;;4976074;28;20379;-66
2022/12/19 08:19:20;;;;;;;23.67;13.20;;;2.60;99.90;;;;;;4938097;28;20213;-65
2022/12/19 08:21:47;;;;;;;20.97;10.70;;;2.70;99.90;;;;;;4971104;28;20212;-65
2022/12/19 08:24:14;;;;;;;28.53;12.57;;;2.70;99.90;;;;;;4990731;28;20232;-65
2022/12/19 08:26:41;;;;;;;21.60;11.33;;;2.70;99.90;;;;;;4989656;28;20209;-66
2022/12/19 08:29:07;;;;;;;22.00;11.27;;;2.70;99.90;;;;;;5008597;23;20201;-66
2022/12/19 08:31:36;;;;;;;24.47;11.97;;;2.80;99.90;;;;;;4990325;28;20235;-66
2022/12/19 08:34:02;;;;;;;20.30;11.23;;;2.70;99.90;;;;;;4981657;28;20744;-66
2022/12/19 08:36:29;;;;;;;22.70;11.13;;;2.70;99.90;;;;;;5004941;28;20227;-66
2022/12/19 08:38:56;;;;;;;24.50;12.10;;;2.80;99.90;;;;;;5017775;28;20199;-66
2022/12/19 08:41:23;;;;;;;21.83;11.27;;;2.90;99.90;;;;;;5024581;28;20360;-65
2022/12/19 08:43:52;;;;;;;27.80;13.90;;;2.80;99.90;;;;;;5036307;28;20652;-65
2022/12/19 08:46:20;;;;;;;24.53;12.53;;;2.80;99.90;;;;;;5042022;28;20206;-65
2022/12/19 08:48:48;;;;;;;23.43;12.93;;;2.80;99.90;;;;;;5008599;28;20208;-65
2022/12/19 08:51:16;;;;;;;24.57;11.83;;;2.90;99.90;;;;;;5019779;28;21252;-66
2022/12/19 08:53:44;;;;;;;19.03;9.60;;;2.90;99.90;;;;;;5028490;28;20207;-66
2022/12/19 08:56:13;;;;;;;22.77;11.97;;;2.90;99.90;;;;;;5009869;28;20413;-64
2022/12/19 08:58:40;;;;;;;19.90;11.50;;;2.90;99.90;;;;;;5032314;28;20231;-65
2022/12/19 09:01:12;;;;;;;20.40;10.93;;;2.90;99.90;;;;;;5030435;28;20487;-65
2022/12/19 09:03:39;;;;;;;18.50;10.67;;;3.00;99.90;;;;;;5020351;28;20227;-65
2022/12/19 09:06:10;;;;;;;19.93;11.80;;;3.00;99.90;;;;;;4961407;28;20236;-65
2022/12/19 09:08:37;;;;;;;18.77;10.53;;;3.10;99.90;;;;;;5015711;28;20233;-65
2022/12/19 09:11:07;;;;;;;18.00;10.53;;;3.10;99.90;;;;;;5021778;28;20720;-65
2022/12/19 09:13:34;;;;;;;19.13;10.37;;;3.10;99.90;;;;;;5018337;28;20208;-65
2022/12/19 09:16:02;;;;;;;17.97;10.17;;;3.20;99.90;;;;;;5033489;28;20208;-65
2022/12/19 09:18:30;;;;;;;16.97;9.73;;;3.10;99.90;;;;;;5017569;28;20231;-65
2022/12/19 09:20:57;;;;;;;17.03;10.30;;;3.10;99.90;;;;;;5001144;28;20222;-64
2022/12/19 09:23:26;;;;;;;18.83;9.73;;;3.20;99.90;;;;;;5038152;28;20243;-65
2022/12/19 09:25:53;;;;;;;17.27;9.83;;;3.20;99.90;;;;;;5022665;28;20233;-65
2022/12/19 09:28:20;;;;;;;21.17;10.33;;;3.30;99.90;;;;;;5010215;28;20246;-66
2022/12/19 09:30:55;;;;;;;18.20;9.27;;;3.30;99.90;;;;;;5032364;28;21549;-65
2022/12/19 09:33:22;;;;;;;21.20;9.93;;;3.40;99.90;;;;;;5024507;28;20301;-65
2022/12/19 09:35:50;;;;;;;17.23;10.33;;;3.40;99.90;;;;;;4979304;28;20208;-66
2022/12/19 09:38:18;;;;;;;19.10;10.60;;;3.40;99.90;;;;;;5027163;28;20216;-66
2022/12/19 09:40:58;;;;;;;15.27;9.70;;;3.40;99.90;;;;;;5012865;28;20215;-65
2022/12/19 09:43:39;;;;;;;17.27;10.30;;;3.50;99.90;;;;;;5022311;28;20446;-66
2022/12/19 09:46:15;;;;;;;15.10;9.70;;;3.50;99.90;;;;;;5040458;28;20204;-66
2022/12/19 09:48:42;;;;;;;16.27;9.03;;;3.50;99.90;;;;;;5014437;28;20205;-65
2022/12/19 09:51:16;;;;;;;19.23;9.50;;;3.60;99.90;;;;;;5000347;28;20209;-65
2022/12/19 09:53:56;;;;;;;13.13;8.63;;;3.50;99.90;;;;;;5031216;28;20206;-65
2022/12/19 09:56:29;;;;;;;15.47;9.50;;;3.50;99.90;;;;;;5015348;28;20232;-66
2022/12/19 09:59:01;;;;;;;14.77;8.67;;;3.60;99.90;;;;;;5038864;28;20771;-65
2022/12/19 10:01:32;;;;;;;15.37;8.83;;;3.60;99.90;;;;;;5029380;28;20198;-65
2022/12/19 10:04:03;;;;;;;15.17;10.23;;;3.70;99.90;;;;;;5028187;28;20232;-65
2022/12/19 10:06:31;;;;;;;16.53;9.47;;;3.70;99.90;;;;;;4983689;28;20226;-64
2022/12/19 10:09:00;;;;;;;16.23;9.23;;;3.70;99.90;;;;;;5036631;28;20218;-66
2022/12/19 10:11:41;;;;;;;13.60;8.93;;;3.70;99.90;;;;;;5016978;28;20637;-66
2022/12/19 10:14:21;;;;;;;16.83;9.43;;;3.80;99.90;;;;;;5035863;28;20258;-66
2022/12/19 10:16:56;;;;;;;16.13;9.27;;;3.80;99.90;;;;;;5037081;28;20874;-65
2022/12/19 10:19:30;;;;;;;13.60;8.63;;;3.80;99.90;;;;;;5007645;28;20225;-66
2022/12/19 10:22:04;;;;;;;16.77;10.17;;;3.80;99.90;;;;;;5008849;28;20236;-66
2022/12/19 10:24:52;;;;;;;20.47;9.87;;;3.90;99.90;;;;;;5023725;28;20453;-65
2022/12/19 10:27:28;;;;;;;16.07;8.90;;;3.90;99.90;;;;;;5009507;28;20228;-65
2022/12/19 10:30:02;;;;;;;18.70;9.83;;;3.90;99.90;;;;;;5038350;28;20234;-65
2022/12/19 10:32:36;;;;;;;15.20;8.63;;;3.90;99.90;;;;;;5021243;28;20311;-66
2022/12/19 10:35:13;;;;;;;16.57;9.83;;;4.00;99.90;;;;;;5026461;28;20200;-66
2022/12/19 10:37:47;;;;;;;15.30;9.33;;;4.00;99.90;;;;;;4991314;28;20952;-66
2022/12/19 10:40:23;;;;;;;16.03;9.97;;;4.00;99.90;;;;;;5038089;28;20196;-66
2022/12/19 10:42:56;;;;;;;14.97;8.50;;;4.00;99.90;;;;;;5030031;28;20203;-66
2022/12/19 10:45:26;;;;;;;17.90;9.40;;;4.10;99.90;;;;;;5036592;28;20812;-66
2022/12/19 10:47:57;;;;;;;15.10;8.73;;;4.10;99.90;;;;;;5024080;28;20671;-67
2022/12/19 10:50:26;;;;;;;15.50;8.50;;;4.10;99.90;;;;;;5021767;28;20221;-66
2022/12/19 10:52:55;;;;;;;13.97;8.70;;;4.20;99.90;;;;;;5007655;28;20232;-66
2022/12/19 10:55:30;;;;;;;14.93;8.60;;;4.20;99.90;;;;;;5017608;28;20393;-65
2022/12/19 10:58:01;;;;;;;12.87;8.67;;;4.20;99.90;;;;;;5033094;28;20238;-66
2022/12/19 11:00:29;;;;;;;13.00;8.47;;;4.30;99.90;;;;;;5036101;28;20644;-66
2022/12/19 11:03:12;;;;;;;16.07;9.10;;;4.40;99.90;;;;;;5032318;28;20205;-66
2022/12/19 11:05:46;;;;;;;13.63;7.87;;;4.30;99.90;;;;;;5031290;28;20225;-66
2022/12/19 11:08:18;;;;;;;14.37;7.60;;;4.40;99.90;;;;;;4990485;28;21018;-66
2022/12/19 11:10:47;;;;;;;13.00;8.37;;;4.40;99.90;;;;;;5035947;28;20289;-65
2022/12/19 11:13:24;;;;;;;13.13;7.80;;;4.50;99.90;;;;;;5038086;28;20865;-66
2022/12/19 11:15:53;;;;;;;12.97;8.83;;;4.60;99.90;;;;;;5004716;28;20282;-66
2022/12/19 11:18:21;;;;;;;13.37;8.43;;;4.60;99.90;;;;;;5026059;28;20221;-66
2022/12/19 11:20:57;;;;;;;12.50;8.73;;;4.70;99.90;;;;;;5020026;28;20229;-66
2022/12/19 11:23:26;;;;;;;12.60;8.93;;;4.70;99.90;;;;;;5009299;28;20211;-66
2022/12/19 11:25:56;;;;;;;10.97;8.00;;;4.80;99.90;;;;;;5030722;28;20914;-66
2022/12/19 11:28:29;;;;;;;15.53;9.03;;;4.80;99.90;;;;;;5038762;28;20204;-67
2022/12/19 11:31:00;;;;;;;15.70;9.83;;;4.90;99.90;;;;;;5020416;28;20313;-66
2022/12/19 11:33:27;;;;;;;13.13;8.37;;;5.00;99.90;;;;;;5031697;28;20211;-67
2022/12/19 11:35:57;;;;;;;15.53;9.73;;;5.00;99.90;;;;;;5016867;28;20228;-65
2022/12/19 11:38:35;;;;;;;13.13;9.77;;;5.00;99.90;;;;;;5003240;28;20222;-65
2022/12/19 11:41:10;;;;;;;17.80;10.27;;;5.10;99.90;;;;;;5022794;28;20318;-65
2022/12/19 11:43:46;;;;;;;15.50;10.13;;;5.20;99.90;;;;;;5035467;28;20901;-64
2022/12/19 11:46:36;;;;;;;16.03;10.43;;;5.10;99.90;;;;;;5020880;28;20740;-66
2022/12/19 11:49:10;;;;;;;13.77;10.23;;;5.20;99.90;;;;;;5044471;28;20762;-67
2022/12/19 11:51:43;;;;;;;14.97;10.33;;;5.30;99.90;;;;;;5024919;28;20349;-67
2022/12/19 11:54:15;;;;;;;15.80;10.87;;;5.40;99.90;;;;;;5008797;28;20578;-67
2022/12/19 11:56:42;;;;;;;17.13;11.23;;;5.40;99.90;;;;;;5037787;28;20205;-67
2022/12/19 11:59:17;;;;;;;16.23;10.57;;;5.40;99.90;;;;;;5037634;28;20211;-67
2022/12/19 12:02:28;;;;;;;15.00;10.27;;;5.50;99.90;;;;;;5032580;28;20228;-67
2022/12/19 12:05:16;;;;;;;15.37;10.30;;;5.60;99.90;;;;;;4996319;28;20233;-66
2022/12/19 12:07:43;;;;;;;17.73;10.57;;;5.60;99.90;;;;;;5011107;28;20205;-66
2022/12/19 12:10:16;;;;;;;13.70;9.90;;;5.80;99.90;;;;;;5019221;28;20528;-67
2022/12/19 12:13:00;;;;;;;18.33;10.27;;;5.70;99.90;;;;;;5041058;28;20678;-66
2022/12/19 12:15:51;;;;;;;14.53;10.53;;;5.80;99.90;;;;;;5041811;28;20205;-66
2022/12/19 12:18:35;;;;;;;16.07;10.27;;;5.80;99.90;;;;;;5031763;28;20761;-66
2022/12/19 12:21:09;;;;;;;17.37;10.73;;;5.90;99.90;;;;;;5045193;28;20205;-67
2022/12/19 12:23:55;;;;;;;14.93;10.17;;;5.90;99.90;;;;;;5033106;28;20219;-67
2022/12/19 12:26:27;;;;;;;16.03;10.13;;;5.90;99.90;;;;;;5015444;28;20233;-67
2022/12/19 12:29:06;;;;;;;18.97;11.20;;;6.00;99.90;;;;;;5044994;28;20212;-67
2022/12/19 12:31:54;;;;;;;15.63;10.43;;;5.90;99.90;;;;;;5033120;28;20224;-68
2022/12/19 12:34:47;;;;;;;15.47;10.53;;;6.00;99.90;;;;;;5028791;28;20231;-67
2022/12/19 12:37:28;;;;;;;12.63;9.90;;;6.10;99.90;;;;;;5024042;28;20212;-67
2022/12/19 12:40:13;;;;;;;14.90;10.53;;;6.10;99.90;;;;;;5042490;28;20205;-68
2022/12/19 12:43:05;;;;;;;16.00;10.83;;;6.10;99.90;;;;;;5022854;28;20263;-68
2022/12/19 12:45:37;;;;;;;16.40;9.93;;;6.20;99.90;;;;;;4988350;28;20288;-67
2022/12/19 12:48:17;;;;;;;14.40;10.07;;;6.20;99.90;;;;;;4995565;28;20204;-66
2022/12/19 12:50:46;;;;;;;18.00;11.63;;;6.40;99.90;;;;;;4992188;28;20229;-67
2022/12/19 12:53:17;;;;;;;16.20;11.40;;;6.30;99.90;;;;;;4982404;28;20231;-67
2022/12/19 12:55:45;;;;;;;18.77;11.57;;;6.30;99.90;;;;;;4967034;28;20207;-68
2022/12/19 12:58:43;;;;;;;20.50;12.67;;;6.30;99.90;;;;;;4998641;28;20233;-67
2022/12/19 13:01:12;;;;;;;21.10;14.00;;;6.30;99.90;;;;;;5004974;28;20194;-68
2022/12/19 13:03:42;;;;;;;25.27;14.43;;;5.80;99.90;;;;;;4978181;28;20773;-68
2022/12/19 13:06:24;;;;;;;22.13;12.87;;;6.40;99.90;;;;;;4990786;28;20368;-68